CSZ9452 ZPPP-ZGSZ
Flight info
| Callsign | CSZ9452 |
|---|---|
| Flight time | 1h 53m |
| Altitude | 29100 |
| Route | LXI A599 POU W7 SAREX |
| Aircraft | B738/M-SDE1E2E3FGHIJ2J3J4J5M1RWXY/LB1D1 |
Departure
| Time | 2026-04-22 06:03 |
|---|---|
| Airport | Kunming Changshui International Airport (ZPPP) |
Arrival
| Time | 2026-04-22 07:57 |
|---|---|
| Airport | Shenzhen Bao'an International Airport (ZGSZ) |
| Time | Latitude | Longitude | Altitude | Speed | Heading |
|---|---|---|---|---|---|
| 2026-04-22 05:28 | 25.10575 | 102.93041 | 6909 ft | 0 kts | 244° |
| 2026-04-22 05:43 | 25.10576 | 102.93044 | 6909 ft | 2 kts | 244° |
| 2026-04-22 05:44 | 25.10583 | 102.93060 | 6909 ft | 2 kts | 244° |
| 2026-04-22 05:44 | 25.10590 | 102.93076 | 6909 ft | 2 kts | 244° |
| 2026-04-22 05:44 | 25.10598 | 102.93092 | 6909 ft | 2 kts | 232° |
| 2026-04-22 05:44 | 25.10611 | 102.93102 | 6909 ft | 2 kts | 182° |
| 2026-04-22 05:45 | 25.10620 | 102.93100 | 6909 ft | 1 kts | 154° |
| 2026-04-22 05:45 | 25.10622 | 102.93099 | 6909 ft | 0 kts | 153° |
| 2026-04-22 05:47 | 25.10616 | 102.93105 | 6909 ft | 4 kts | 118° |
| 2026-04-22 05:47 | 25.10588 | 102.93156 | 6909 ft | 12 kts | 129° |
| 2026-04-22 05:47 | 25.10527 | 102.93240 | 6909 ft | 12 kts | 128° |
| 2026-04-22 05:47 | 25.10509 | 102.93308 | 6909 ft | 10 kts | 79° |
| 2026-04-22 05:48 | 25.10533 | 102.93367 | 6909 ft | 8 kts | 66° |
| 2026-04-22 05:48 | 25.10581 | 102.93428 | 6909 ft | 11 kts | 41° |
| 2026-04-22 05:48 | 25.10626 | 102.93469 | 6909 ft | 4 kts | 36° |
| 2026-04-22 05:48 | 25.10648 | 102.93487 | 6909 ft | 4 kts | 36° |
| 2026-04-22 05:49 | 25.10653 | 102.93492 | 6909 ft | 0 kts | 36° |
| 2026-04-22 05:49 | 25.10664 | 102.93508 | 6909 ft | 7 kts | 68° |
| 2026-04-22 05:49 | 25.10644 | 102.93585 | 6909 ft | 12 kts | 130° |
| 2026-04-22 05:50 | 25.10582 | 102.93667 | 6909 ft | 16 kts | 129° |
| 2026-04-22 05:50 | 25.10500 | 102.93779 | 6909 ft | 21 kts | 128° |
| 2026-04-22 05:50 | 25.10410 | 102.93907 | 6909 ft | 19 kts | 129° |
| 2026-04-22 05:50 | 25.10331 | 102.93997 | 6909 ft | 11 kts | 162° |
| 2026-04-22 05:51 | 25.10268 | 102.93974 | 6909 ft | 10 kts | 219° |
| 2026-04-22 05:51 | 25.10223 | 102.93934 | 6909 ft | 5 kts | 218° |
| 2026-04-22 05:51 | 25.10179 | 102.93934 | 6909 ft | 9 kts | 150° |
| 2026-04-22 05:51 | 25.10123 | 102.94001 | 6909 ft | 15 kts | 126° |
| 2026-04-22 05:52 | 25.10063 | 102.94104 | 6909 ft | 11 kts | 129° |
| 2026-04-22 05:52 | 25.10005 | 102.94186 | 6909 ft | 11 kts | 116° |
| 2026-04-22 05:52 | 25.10039 | 102.94246 | 6909 ft | 13 kts | 40° |
| 2026-04-22 05:52 | 25.10121 | 102.94322 | 6909 ft | 19 kts | 40° |
| 2026-04-22 05:53 | 25.10243 | 102.94428 | 6909 ft | 17 kts | 38° |
| 2026-04-22 05:53 | 25.10361 | 102.94529 | 6909 ft | 22 kts | 38° |
| 2026-04-22 05:53 | 25.10474 | 102.94626 | 6909 ft | 17 kts | 38° |
| 2026-04-22 05:53 | 25.10580 | 102.94715 | 6909 ft | 19 kts | 37° |
| 2026-04-22 05:54 | 25.10686 | 102.94809 | 6909 ft | 21 kts | 35° |
| 2026-04-22 05:54 | 25.10786 | 102.94895 | 6909 ft | 19 kts | 33° |
| 2026-04-22 05:54 | 25.10885 | 102.94980 | 6909 ft | 22 kts | 38° |
| 2026-04-22 05:54 | 25.11019 | 102.95093 | 6909 ft | 19 kts | 39° |
| 2026-04-22 05:55 | 25.11133 | 102.95192 | 6909 ft | 22 kts | 37° |
| 2026-04-22 05:55 | 25.11260 | 102.95300 | 6909 ft | 18 kts | 39° |
| 2026-04-22 05:55 | 25.11336 | 102.95368 | 6909 ft | 13 kts | 39° |
| 2026-04-22 05:55 | 25.11430 | 102.95450 | 6909 ft | 22 kts | 38° |
| 2026-04-22 05:56 | 25.11575 | 102.95579 | 6909 ft | 27 kts | 36° |
| 2026-04-22 05:56 | 25.11633 | 102.95628 | 6909 ft | 0 kts | 38° |
| 2026-04-22 05:57 | 25.11640 | 102.95634 | 6909 ft | 4 kts | 38° |
| 2026-04-22 05:57 | 25.11662 | 102.95678 | 6909 ft | 10 kts | 105° |
| 2026-04-22 05:58 | 25.11646 | 102.95710 | 6909 ft | 0 kts | 128° |
| 2026-04-22 05:59 | 25.11646 | 102.95711 | 6909 ft | 0 kts | 128° |
| 2026-04-22 06:00 | 25.11643 | 102.95714 | 6909 ft | 3 kts | 128° |
| 2026-04-22 06:00 | 25.11608 | 102.95762 | 6909 ft | 13 kts | 129° |
| 2026-04-22 06:00 | 25.11541 | 102.95791 | 6909 ft | 10 kts | 231° |
| 2026-04-22 06:01 | 25.11514 | 102.95765 | 6909 ft | 3 kts | 218° |
| 2026-04-22 06:01 | 25.11511 | 102.95762 | 6909 ft | 0 kts | 218° |
| 2026-04-22 06:01 | 25.11508 | 102.95760 | 6909 ft | 0 kts | 218° |
| 2026-04-22 06:01 | 25.11506 | 102.95758 | 6909 ft | 0 kts | 218° |
| 2026-04-22 06:02 | 25.11504 | 102.95756 | 6909 ft | 0 kts | 218° |
| 2026-04-22 06:02 | 25.11501 | 102.95754 | 6909 ft | 2 kts | 218° |
| 2026-04-22 06:02 | 25.11358 | 102.95629 | 6910 ft | 55 kts | 219° |
| 2026-04-22 06:02 | 25.10911 | 102.95241 | 6910 ft | 108 kts | 218° |
| 2026-04-22 06:03 | 25.10191 | 102.94618 | 6910 ft | 154 kts | 218° |
| 2026-04-22 06:03 | 25.09284 | 102.93825 | 7200 ft | 171 kts | 220° |
| 2026-04-22 06:03 | 25.08326 | 102.93003 | 7762 ft | 177 kts | 219° |
| 2026-04-22 06:03 | 25.07345 | 102.92182 | 8380 ft | 180 kts | 218° |
| 2026-04-22 06:04 | 25.06349 | 102.91328 | 8881 ft | 186 kts | 220° |
| 2026-04-22 06:04 | 25.05332 | 102.90423 | 9367 ft | 189 kts | 220° |
| 2026-04-22 06:04 | 25.04308 | 102.89518 | 9846 ft | 189 kts | 220° |
| 2026-04-22 06:04 | 25.03270 | 102.88606 | 10280 ft | 200 kts | 220° |
| 2026-04-22 06:05 | 25.02122 | 102.87601 | 10542 ft | 221 kts | 220° |
| 2026-04-22 06:05 | 25.00854 | 102.86498 | 10797 ft | 242 kts | 220° |
| 2026-04-22 06:05 | 24.99479 | 102.85302 | 11105 ft | 259 kts | 220° |
| 2026-04-22 06:05 | 24.98528 | 102.84481 | 11457 ft | 264 kts | 220° |
| 2026-04-22 06:06 | 24.97157 | 102.83289 | 12207 ft | 262 kts | 220° |
| 2026-04-22 06:06 | 24.95665 | 102.81992 | 13119 ft | 262 kts | 221° |
| 2026-04-22 06:06 | 24.93491 | 102.80698 | 14058 ft | 276 kts | 198° |
| 2026-04-22 06:06 | 24.92206 | 102.80562 | 14528 ft | 285 kts | 183° |
| 2026-04-22 06:07 | 24.90233 | 102.81086 | 15179 ft | 302 kts | 160° |
| 2026-04-22 06:07 | 24.88494 | 102.82455 | 15815 ft | 317 kts | 138° |
| 2026-04-22 06:07 | 24.87261 | 102.84510 | 16439 ft | 330 kts | 115° |
| 2026-04-22 06:07 | 24.86648 | 102.86977 | 17081 ft | 337 kts | 103° |
| 2026-04-22 06:08 | 24.86113 | 102.89504 | 17669 ft | 342 kts | 107° |
| 2026-04-22 06:08 | 24.85341 | 102.91993 | 18247 ft | 345 kts | 116° |
| 2026-04-22 06:08 | 24.84213 | 102.94343 | 18759 ft | 350 kts | 125° |
| 2026-04-22 06:08 | 24.82852 | 102.96628 | 19053 ft | 365 kts | 127° |
| 2026-04-22 06:09 | 24.81443 | 102.99034 | 19266 ft | 382 kts | 126° |
| 2026-04-22 06:09 | 24.80004 | 103.01566 | 19476 ft | 398 kts | 125° |
| 2026-04-22 06:09 | 24.78642 | 103.04290 | 19665 ft | 415 kts | 118° |
| 2026-04-22 06:09 | 24.77487 | 103.07273 | 19844 ft | 431 kts | 114° |
| 2026-04-22 06:10 | 24.76433 | 103.10399 | 20161 ft | 439 kts | 112° |
| 2026-04-22 06:10 | 24.75360 | 103.13559 | 20642 ft | 443 kts | 113° |
| 2026-04-22 06:10 | 24.74264 | 103.16740 | 21116 ft | 446 kts | 113° |
| 2026-04-22 06:10 | 24.73151 | 103.19939 | 21570 ft | 450 kts | 114° |
| 2026-04-22 06:11 | 24.72022 | 103.23165 | 22017 ft | 453 kts | 114° |
| 2026-04-22 06:11 | 24.70882 | 103.26410 | 22446 ft | 457 kts | 114° |
| 2026-04-22 06:11 | 24.69747 | 103.29634 | 22876 ft | 459 kts | 114° |
| 2026-04-22 06:11 | 24.68588 | 103.32921 | 23268 ft | 463 kts | 114° |
| 2026-04-22 06:12 | 24.67420 | 103.36233 | 23671 ft | 466 kts | 114° |
| 2026-04-22 06:12 | 24.66247 | 103.39569 | 24051 ft | 469 kts | 114° |
| 2026-04-22 06:12 | 24.65086 | 103.42938 | 24416 ft | 473 kts | 114° |
| 2026-04-22 06:12 | 24.63910 | 103.46314 | 24845 ft | 474 kts | 114° |
| 2026-04-22 06:13 | 24.62719 | 103.49696 | 25354 ft | 473 kts | 114° |
| 2026-04-22 06:13 | 24.61526 | 103.53069 | 25841 ft | 473 kts | 114° |
| 2026-04-22 06:13 | 24.60332 | 103.56434 | 26290 ft | 473 kts | 114° |
| 2026-04-22 06:13 | 24.59131 | 103.59816 | 26753 ft | 474 kts | 114° |
| 2026-04-22 06:14 | 24.57931 | 103.63191 | 27225 ft | 474 kts | 114° |
| 2026-04-22 06:14 | 24.56732 | 103.66563 | 27708 ft | 474 kts | 114° |
| 2026-04-22 06:14 | 24.55529 | 103.69945 | 28135 ft | 475 kts | 114° |
| 2026-04-22 06:14 | 24.54344 | 103.73330 | 28601 ft | 476 kts | 112° |
| 2026-04-22 06:15 | 24.53361 | 103.76810 | 29040 ft | 478 kts | 107° |
| 2026-04-22 06:15 | 24.52563 | 103.80321 | 29131 ft | 481 kts | 104° |
| 2026-04-22 06:15 | 24.51093 | 103.87450 | 29158 ft | 476 kts | 104° |
| 2026-04-22 06:16 | 24.49590 | 103.94491 | 29155 ft | 473 kts | 104° |
| 2026-04-22 06:16 | 24.48067 | 104.01507 | 29150 ft | 473 kts | 105° |
| 2026-04-22 06:17 | 24.46531 | 104.08536 | 29146 ft | 473 kts | 105° |
| 2026-04-22 06:17 | 24.44985 | 104.15701 | 29145 ft | 491 kts | 104° |
| 2026-04-22 06:18 | 24.43377 | 104.23104 | 29140 ft | 506 kts | 104° |
| 2026-04-22 06:18 | 24.41709 | 104.30719 | 29134 ft | 519 kts | 104° |
| 2026-04-22 06:19 | 24.40008 | 104.38451 | 29127 ft | 529 kts | 105° |
| 2026-04-22 06:19 | 24.38279 | 104.46371 | 29121 ft | 538 kts | 104° |
| 2026-04-22 06:20 | 24.36505 | 104.54401 | 29115 ft | 545 kts | 105° |
| 2026-04-22 06:20 | 24.34701 | 104.62495 | 29109 ft | 546 kts | 105° |
| 2026-04-22 06:21 | 24.32896 | 104.70582 | 29104 ft | 546 kts | 105° |
| 2026-04-22 06:21 | 24.31097 | 104.78666 | 29100 ft | 546 kts | 104° |
| 2026-04-22 06:22 | 24.29424 | 104.86795 | 29095 ft | 547 kts | 104° |
| 2026-04-22 06:22 | 24.27766 | 104.94934 | 29090 ft | 547 kts | 104° |
| 2026-04-22 06:23 | 24.26072 | 105.03056 | 29087 ft | 547 kts | 104° |
| 2026-04-22 06:23 | 24.24379 | 105.11125 | 29082 ft | 547 kts | 104° |
| 2026-04-22 06:24 | 24.21822 | 105.23290 | 29076 ft | 546 kts | 105° |
| 2026-04-22 06:25 | 24.19866 | 105.31317 | 29073 ft | 546 kts | 107° |
| 2026-04-22 06:25 | 24.17899 | 105.39359 | 29069 ft | 545 kts | 106° |
| 2026-04-22 06:26 | 24.15956 | 105.47384 | 29066 ft | 545 kts | 107° |
| 2026-04-22 06:26 | 24.13998 | 105.55397 | 29063 ft | 544 kts | 107° |
| 2026-04-22 06:27 | 24.12037 | 105.63407 | 29060 ft | 544 kts | 107° |
| 2026-04-22 06:27 | 24.10093 | 105.71359 | 29056 ft | 542 kts | 106° |
| 2026-04-22 06:28 | 24.08481 | 105.79350 | 29054 ft | 534 kts | 103° |
| 2026-04-22 06:28 | 24.06978 | 105.87290 | 29030 ft | 531 kts | 103° |
| 2026-04-22 06:29 | 24.05453 | 105.95072 | 29006 ft | 517 kts | 103° |
| 2026-04-22 06:29 | 24.03938 | 106.02724 | 28994 ft | 512 kts | 103° |
| 2026-04-22 06:30 | 24.02440 | 106.10350 | 28987 ft | 513 kts | 103° |
| 2026-04-22 06:30 | 24.00950 | 106.17930 | 28983 ft | 513 kts | 103° |
| 2026-04-22 06:31 | 23.99436 | 106.25556 | 28978 ft | 513 kts | 103° |
| 2026-04-22 06:31 | 23.97937 | 106.33172 | 28974 ft | 512 kts | 103° |
| 2026-04-22 06:32 | 23.96412 | 106.40768 | 28970 ft | 512 kts | 103° |
| 2026-04-22 06:32 | 23.94878 | 106.48369 | 28966 ft | 512 kts | 103° |
| 2026-04-22 06:33 | 23.93345 | 106.55956 | 28962 ft | 511 kts | 103° |
| 2026-04-22 06:33 | 23.92186 | 106.63614 | 28958 ft | 511 kts | 95° |
| 2026-04-22 06:34 | 23.91693 | 106.71348 | 28955 ft | 510 kts | 94° |
| 2026-04-22 06:34 | 23.91188 | 106.79078 | 28943 ft | 509 kts | 94° |
| 2026-04-22 06:35 | 23.90663 | 106.86794 | 28936 ft | 508 kts | 94° |
| 2026-04-22 06:35 | 23.90163 | 106.94494 | 28933 ft | 508 kts | 94° |
| 2026-04-22 06:36 | 23.89646 | 107.02188 | 28931 ft | 507 kts | 94° |
| 2026-04-22 06:36 | 23.89107 | 107.09872 | 28929 ft | 507 kts | 94° |
| 2026-04-22 06:37 | 23.88564 | 107.17540 | 28926 ft | 506 kts | 94° |
| 2026-04-22 06:37 | 23.88020 | 107.25214 | 28924 ft | 506 kts | 94° |
| 2026-04-22 06:38 | 23.87471 | 107.32875 | 28922 ft | 505 kts | 94° |
| 2026-04-22 06:38 | 23.86916 | 107.40527 | 28919 ft | 505 kts | 94° |
| 2026-04-22 06:39 | 23.86357 | 107.48186 | 28919 ft | 505 kts | 94° |
| 2026-04-22 06:39 | 23.85831 | 107.55846 | 28917 ft | 505 kts | 94° |
| 2026-04-22 06:40 | 23.85275 | 107.63497 | 28914 ft | 505 kts | 95° |
| 2026-04-22 06:40 | 23.84704 | 107.71158 | 28912 ft | 505 kts | 95° |
| 2026-04-22 06:41 | 23.84134 | 107.78765 | 28910 ft | 505 kts | 95° |
| 2026-04-22 06:41 | 23.83564 | 107.86421 | 28908 ft | 505 kts | 94° |
| 2026-04-22 06:42 | 23.83208 | 107.94084 | 28906 ft | 505 kts | 92° |
| 2026-04-22 06:42 | 23.82830 | 108.01764 | 28905 ft | 505 kts | 93° |
| 2026-04-22 06:43 | 23.82434 | 108.09430 | 28904 ft | 505 kts | 93° |
| 2026-04-22 06:43 | 23.82034 | 108.17107 | 28903 ft | 504 kts | 93° |
| 2026-04-22 06:44 | 23.81611 | 108.24745 | 28903 ft | 504 kts | 93° |
| 2026-04-22 06:44 | 23.81185 | 108.32342 | 28902 ft | 504 kts | 93° |
| 2026-04-22 06:45 | 23.80753 | 108.39975 | 28902 ft | 503 kts | 93° |
| 2026-04-22 06:45 | 23.80317 | 108.47615 | 28903 ft | 503 kts | 93° |
| 2026-04-22 06:46 | 23.79887 | 108.55226 | 28903 ft | 502 kts | 93° |
| 2026-04-22 06:46 | 23.79477 | 108.62839 | 28904 ft | 501 kts | 93° |
| 2026-04-22 06:47 | 23.79047 | 108.70434 | 28906 ft | 501 kts | 93° |
| 2026-04-22 06:47 | 23.78611 | 108.78016 | 28908 ft | 500 kts | 94° |
| 2026-04-22 06:48 | 23.78187 | 108.85603 | 28910 ft | 501 kts | 94° |
| 2026-04-22 06:48 | 23.77739 | 108.93176 | 28913 ft | 500 kts | 94° |
| 2026-04-22 06:49 | 23.77286 | 109.00689 | 28915 ft | 498 kts | 94° |
| 2026-04-22 06:49 | 23.76827 | 109.08242 | 28918 ft | 499 kts | 94° |
| 2026-04-22 06:50 | 23.76189 | 109.15767 | 28922 ft | 497 kts | 100° |
| 2026-04-22 06:50 | 23.74739 | 109.23142 | 28924 ft | 497 kts | 104° |
| 2026-04-22 06:51 | 23.73225 | 109.30493 | 28926 ft | 496 kts | 103° |
| 2026-04-22 06:51 | 23.71732 | 109.37838 | 28929 ft | 496 kts | 103° |
| 2026-04-22 06:52 | 23.70225 | 109.45180 | 28933 ft | 496 kts | 103° |
| 2026-04-22 06:52 | 23.68715 | 109.52524 | 28935 ft | 495 kts | 104° |
| 2026-04-22 06:53 | 23.67205 | 109.59858 | 28938 ft | 495 kts | 104° |
| 2026-04-22 06:53 | 23.65708 | 109.67116 | 28940 ft | 495 kts | 104° |
| 2026-04-22 06:54 | 23.64179 | 109.74493 | 28942 ft | 495 kts | 104° |
| 2026-04-22 06:54 | 23.62656 | 109.81822 | 28944 ft | 495 kts | 104° |
| 2026-04-22 06:55 | 23.61388 | 109.87913 | 28946 ft | 495 kts | 104° |
| 2026-04-22 06:55 | 23.59613 | 109.96423 | 28948 ft | 494 kts | 104° |
| 2026-04-22 06:56 | 23.58358 | 110.02545 | 28949 ft | 494 kts | 103° |
| 2026-04-22 06:56 | 23.56860 | 110.09865 | 28951 ft | 494 kts | 104° |
| 2026-04-22 06:57 | 23.55329 | 110.17165 | 28952 ft | 494 kts | 104° |
| 2026-04-22 06:57 | 23.53800 | 110.24425 | 28953 ft | 494 kts | 104° |
| 2026-04-22 06:58 | 23.52253 | 110.31759 | 28950 ft | 493 kts | 104° |
| 2026-04-22 06:58 | 23.50740 | 110.39010 | 28949 ft | 494 kts | 103° |
| 2026-04-22 06:59 | 23.49278 | 110.46318 | 28949 ft | 494 kts | 103° |
| 2026-04-22 06:59 | 23.47788 | 110.53619 | 28950 ft | 494 kts | 103° |
| 2026-04-22 07:00 | 23.46292 | 110.60914 | 28950 ft | 493 kts | 103° |
| 2026-04-22 07:00 | 23.44796 | 110.68201 | 28949 ft | 493 kts | 103° |
| 2026-04-22 07:01 | 23.43286 | 110.75494 | 28949 ft | 493 kts | 104° |
| 2026-04-22 07:01 | 23.41754 | 110.82782 | 28948 ft | 493 kts | 103° |
| 2026-04-22 07:02 | 23.40226 | 110.90067 | 28937 ft | 493 kts | 103° |
| 2026-04-22 07:02 | 23.38679 | 110.97346 | 28934 ft | 493 kts | 103° |
| 2026-04-22 07:03 | 23.37129 | 111.04619 | 28932 ft | 493 kts | 103° |
| 2026-04-22 07:03 | 23.35586 | 111.11850 | 28931 ft | 493 kts | 103° |
| 2026-04-22 07:04 | 23.34078 | 111.19138 | 28930 ft | 494 kts | 102° |
| 2026-04-22 07:04 | 23.32617 | 111.26432 | 28928 ft | 494 kts | 103° |
| 2026-04-22 07:05 | 23.31136 | 111.33725 | 28926 ft | 495 kts | 103° |
| 2026-04-22 07:05 | 23.29648 | 111.41037 | 28925 ft | 495 kts | 103° |
| 2026-04-22 07:06 | 23.28116 | 111.48331 | 28923 ft | 495 kts | 103° |
| 2026-04-22 07:06 | 23.26577 | 111.55603 | 28919 ft | 483 kts | 103° |
| 2026-04-22 07:07 | 23.25379 | 111.61302 | 28914 ft | 458 kts | 103° |
| 2026-04-22 07:07 | 23.24684 | 111.64583 | 28911 ft | 444 kts | 103° |
| 2026-04-22 07:07 | 23.24001 | 111.67797 | 28873 ft | 431 kts | 103° |
| 2026-04-22 07:07 | 23.23320 | 111.70994 | 28596 ft | 425 kts | 103° |
| 2026-04-22 07:08 | 23.22656 | 111.74109 | 28301 ft | 421 kts | 103° |
| 2026-04-22 07:08 | 23.22006 | 111.77162 | 27910 ft | 420 kts | 103° |
| 2026-04-22 07:08 | 23.21349 | 111.80242 | 27516 ft | 418 kts | 103° |
| 2026-04-22 07:08 | 23.20696 | 111.83313 | 27124 ft | 416 kts | 103° |
| 2026-04-22 07:09 | 23.20063 | 111.86387 | 26730 ft | 415 kts | 103° |
| 2026-04-22 07:09 | 23.19435 | 111.89436 | 26339 ft | 413 kts | 103° |
| 2026-04-22 07:09 | 23.18807 | 111.92475 | 25946 ft | 411 kts | 103° |
| 2026-04-22 07:09 | 23.18181 | 111.95507 | 25553 ft | 410 kts | 103° |
| 2026-04-22 07:10 | 23.17556 | 111.98521 | 25161 ft | 408 kts | 103° |
| 2026-04-22 07:10 | 23.16934 | 112.01523 | 24770 ft | 406 kts | 103° |
| 2026-04-22 07:10 | 23.16315 | 112.04505 | 24378 ft | 404 kts | 103° |
| 2026-04-22 07:10 | 23.15697 | 112.07481 | 23987 ft | 402 kts | 103° |
| 2026-04-22 07:11 | 23.15082 | 112.10440 | 23595 ft | 401 kts | 103° |
| 2026-04-22 07:11 | 23.14469 | 112.13388 | 23203 ft | 399 kts | 103° |
| 2026-04-22 07:11 | 23.13879 | 112.16318 | 22814 ft | 397 kts | 103° |
| 2026-04-22 07:11 | 23.13289 | 112.19239 | 22426 ft | 395 kts | 103° |
| 2026-04-22 07:12 | 23.12689 | 112.22153 | 22038 ft | 393 kts | 103° |
| 2026-04-22 07:12 | 23.12097 | 112.25006 | 21656 ft | 391 kts | 103° |
| 2026-04-22 07:12 | 23.11490 | 112.27916 | 21265 ft | 390 kts | 104° |
| 2026-04-22 07:12 | 23.10890 | 112.30783 | 20882 ft | 388 kts | 104° |
| 2026-04-22 07:13 | 23.10302 | 112.33590 | 20505 ft | 386 kts | 104° |
| 2026-04-22 07:13 | 23.09707 | 112.36425 | 20125 ft | 384 kts | 104° |
| 2026-04-22 07:13 | 23.09115 | 112.39244 | 19745 ft | 382 kts | 104° |
| 2026-04-22 07:13 | 23.08526 | 112.42052 | 19367 ft | 380 kts | 104° |
| 2026-04-22 07:14 | 23.07932 | 112.44841 | 18990 ft | 378 kts | 105° |
| 2026-04-22 07:14 | 23.06951 | 112.47454 | 18637 ft | 371 kts | 124° |
| 2026-04-22 07:14 | 23.05331 | 112.49571 | 18373 ft | 361 kts | 141° |
| 2026-04-22 07:14 | 23.03616 | 112.51078 | 18146 ft | 355 kts | 147° |
| 2026-04-22 07:15 | 23.01606 | 112.52585 | 17920 ft | 349 kts | 151° |
| 2026-04-22 07:15 | 22.99571 | 112.53991 | 17704 ft | 346 kts | 152° |
| 2026-04-22 07:15 | 22.97550 | 112.55384 | 17490 ft | 342 kts | 152° |
| 2026-04-22 07:15 | 22.95549 | 112.56773 | 17281 ft | 341 kts | 151° |
| 2026-04-22 07:16 | 22.93547 | 112.58170 | 17073 ft | 343 kts | 151° |
| 2026-04-22 07:16 | 22.91536 | 112.59580 | 16863 ft | 343 kts | 151° |
| 2026-04-22 07:16 | 22.89534 | 112.60985 | 16654 ft | 342 kts | 151° |
| 2026-04-22 07:16 | 22.87535 | 112.62390 | 16446 ft | 341 kts | 151° |
| 2026-04-22 07:17 | 22.85554 | 112.63784 | 16238 ft | 340 kts | 151° |
| 2026-04-22 07:17 | 22.83568 | 112.65181 | 16031 ft | 339 kts | 151° |
| 2026-04-22 07:17 | 22.81597 | 112.66569 | 15825 ft | 338 kts | 151° |
| 2026-04-22 07:17 | 22.79630 | 112.67953 | 15620 ft | 337 kts | 151° |
| 2026-04-22 07:18 | 22.77672 | 112.69336 | 15415 ft | 336 kts | 150° |
| 2026-04-22 07:18 | 22.75721 | 112.70720 | 15211 ft | 334 kts | 150° |
| 2026-04-22 07:18 | 22.73779 | 112.72098 | 15007 ft | 334 kts | 150° |
| 2026-04-22 07:18 | 22.71839 | 112.73469 | 14805 ft | 332 kts | 150° |
| 2026-04-22 07:19 | 22.69927 | 112.74817 | 14605 ft | 331 kts | 150° |
| 2026-04-22 07:19 | 22.67973 | 112.76190 | 14401 ft | 330 kts | 151° |
| 2026-04-22 07:19 | 22.66048 | 112.77542 | 14200 ft | 330 kts | 151° |
| 2026-04-22 07:19 | 22.64121 | 112.78896 | 14000 ft | 330 kts | 150° |
| 2026-04-22 07:20 | 22.62223 | 112.80230 | 13799 ft | 329 kts | 151° |
| 2026-04-22 07:20 | 22.60307 | 112.81574 | 13602 ft | 327 kts | 151° |
| 2026-04-22 07:20 | 22.58403 | 112.82913 | 13403 ft | 325 kts | 150° |
| 2026-04-22 07:20 | 22.56501 | 112.84244 | 13207 ft | 329 kts | 151° |
| 2026-04-22 07:21 | 22.54580 | 112.85589 | 13006 ft | 328 kts | 150° |
| 2026-04-22 07:21 | 22.52671 | 112.86927 | 12806 ft | 326 kts | 151° |
| 2026-04-22 07:21 | 22.50774 | 112.88253 | 12608 ft | 324 kts | 150° |
| 2026-04-22 07:21 | 22.48900 | 112.89569 | 12555 ft | 319 kts | 150° |
| 2026-04-22 07:22 | 22.47047 | 112.90895 | 12396 ft | 320 kts | 149° |
| 2026-04-22 07:22 | 22.45186 | 112.92233 | 12208 ft | 321 kts | 150° |
| 2026-04-22 07:22 | 22.43329 | 112.93565 | 12016 ft | 320 kts | 150° |
| 2026-04-22 07:22 | 22.41480 | 112.94890 | 11822 ft | 318 kts | 150° |
| 2026-04-22 07:23 | 22.39637 | 112.96207 | 11630 ft | 317 kts | 150° |
| 2026-04-22 07:23 | 22.37802 | 112.97521 | 11436 ft | 315 kts | 150° |
| 2026-04-22 07:23 | 22.35978 | 112.98826 | 11249 ft | 314 kts | 150° |
| 2026-04-22 07:23 | 22.34163 | 113.00140 | 11056 ft | 315 kts | 148° |
| 2026-04-22 07:24 | 22.32637 | 113.01838 | 10856 ft | 320 kts | 127° |
| 2026-04-22 07:24 | 22.31769 | 113.04045 | 10632 ft | 324 kts | 105° |
| 2026-04-22 07:24 | 22.31689 | 113.06472 | 10395 ft | 325 kts | 83° |
| 2026-04-22 07:24 | 22.32417 | 113.08768 | 10191 ft | 322 kts | 61° |
| 2026-04-22 07:25 | 22.33662 | 113.10747 | 10007 ft | 316 kts | 54° |
| 2026-04-22 07:25 | 22.34842 | 113.12735 | 9813 ft | 313 kts | 59° |
| 2026-04-22 07:25 | 22.35876 | 113.14784 | 9620 ft | 310 kts | 64° |
| 2026-04-22 07:25 | 22.36809 | 113.16883 | 9434 ft | 310 kts | 66° |
| 2026-04-22 07:26 | 22.37678 | 113.18990 | 9245 ft | 309 kts | 68° |
| 2026-04-22 07:26 | 22.38555 | 113.21128 | 9052 ft | 308 kts | 68° |
| 2026-04-22 07:26 | 22.39422 | 113.23244 | 8870 ft | 310 kts | 68° |
| 2026-04-22 07:26 | 22.40300 | 113.25384 | 8680 ft | 310 kts | 68° |
| 2026-04-22 07:27 | 22.41174 | 113.27509 | 8491 ft | 307 kts | 68° |
| 2026-04-22 07:27 | 22.42036 | 113.29613 | 8305 ft | 304 kts | 68° |
| 2026-04-22 07:27 | 22.42893 | 113.31701 | 8118 ft | 304 kts | 68° |
| 2026-04-22 07:27 | 22.43739 | 113.33761 | 7931 ft | 302 kts | 68° |
| 2026-04-22 07:28 | 22.45446 | 113.37917 | 7563 ft | 299 kts | 68° |
| 2026-04-22 07:28 | 22.46279 | 113.39933 | 7386 ft | 299 kts | 68° |
| 2026-04-22 07:28 | 22.47138 | 113.41993 | 7199 ft | 300 kts | 68° |
| 2026-04-22 07:29 | 22.47998 | 113.44059 | 7011 ft | 301 kts | 68° |
| 2026-04-22 07:29 | 22.48846 | 113.46110 | 6827 ft | 297 kts | 68° |
| 2026-04-22 07:29 | 22.49688 | 113.48150 | 6647 ft | 295 kts | 68° |
| 2026-04-22 07:29 | 22.50485 | 113.50081 | 6473 ft | 289 kts | 68° |
| 2026-04-22 07:30 | 22.51298 | 113.52049 | 6298 ft | 284 kts | 68° |
| 2026-04-22 07:30 | 22.52119 | 113.53968 | 6119 ft | 279 kts | 64° |
| 2026-04-22 07:30 | 22.53386 | 113.55508 | 5928 ft | 275 kts | 33° |
| 2026-04-22 07:30 | 22.55124 | 113.56270 | 5774 ft | 267 kts | 12° |
| 2026-04-22 07:31 | 22.56935 | 113.56538 | 5596 ft | 260 kts | 1° |
| 2026-04-22 07:31 | 22.58714 | 113.56595 | 5432 ft | 253 kts | 358° |
| 2026-04-22 07:31 | 22.60464 | 113.56609 | 5275 ft | 250 kts | 358° |
| 2026-04-22 07:31 | 22.62192 | 113.56640 | 5120 ft | 246 kts | 359° |
| 2026-04-22 07:32 | 22.63907 | 113.56687 | 4967 ft | 247 kts | 359° |
| 2026-04-22 07:32 | 22.65617 | 113.56740 | 4815 ft | 245 kts | 360° |
| 2026-04-22 07:32 | 22.67319 | 113.56796 | 4666 ft | 244 kts | 360° |
| 2026-04-22 07:32 | 22.69018 | 113.56855 | 4519 ft | 243 kts | 0° |
| 2026-04-22 07:33 | 22.70705 | 113.56912 | 4370 ft | 242 kts | 0° |
| 2026-04-22 07:33 | 22.72386 | 113.56969 | 4225 ft | 243 kts | 0° |
| 2026-04-22 07:33 | 22.74068 | 113.57025 | 4074 ft | 241 kts | 0° |
| 2026-04-22 07:33 | 22.75736 | 113.57075 | 3924 ft | 239 kts | 0° |
| 2026-04-22 07:34 | 22.77396 | 113.57125 | 3776 ft | 238 kts | 0° |
| 2026-04-22 07:34 | 22.79049 | 113.57174 | 3626 ft | 237 kts | 1° |
| 2026-04-22 07:34 | 22.80693 | 113.57223 | 3478 ft | 236 kts | 1° |
| 2026-04-22 07:34 | 22.82325 | 113.57400 | 3307 ft | 236 kts | 16° |
| 2026-04-22 07:35 | 22.83647 | 113.58334 | 3168 ft | 231 kts | 50° |
| 2026-04-22 07:35 | 22.84514 | 113.59809 | 3007 ft | 228 kts | 65° |
| 2026-04-22 07:35 | 22.85171 | 113.61343 | 2820 ft | 228 kts | 68° |
| 2026-04-22 07:35 | 22.85868 | 113.62910 | 2634 ft | 231 kts | 66° |
| 2026-04-22 07:36 | 22.86330 | 113.64530 | 2504 ft | 221 kts | 91° |
| 2026-04-22 07:36 | 22.85851 | 113.65997 | 2467 ft | 202 kts | 130° |
| 2026-04-22 07:36 | 22.84809 | 113.66961 | 2564 ft | 195 kts | 147° |
| 2026-04-22 07:36 | 22.83675 | 113.67761 | 2585 ft | 195 kts | 151° |
| 2026-04-22 07:37 | 22.82494 | 113.68483 | 2578 ft | 195 kts | 153° |
| 2026-04-22 07:37 | 22.81299 | 113.69158 | 2575 ft | 193 kts | 155° |
| 2026-04-22 07:37 | 22.80089 | 113.69830 | 2495 ft | 195 kts | 155° |
| 2026-04-22 07:37 | 22.78906 | 113.70485 | 2408 ft | 189 kts | 155° |
| 2026-04-22 07:38 | 22.77751 | 113.71121 | 2299 ft | 184 kts | 155° |
| 2026-04-22 07:38 | 22.76632 | 113.71737 | 2283 ft | 180 kts | 155° |
| 2026-04-22 07:38 | 22.75500 | 113.72360 | 2105 ft | 185 kts | 155° |
| 2026-04-22 07:38 | 22.74352 | 113.72992 | 1857 ft | 185 kts | 156° |
| 2026-04-22 07:39 | 22.73209 | 113.73620 | 1606 ft | 183 kts | 156° |
| 2026-04-22 07:39 | 22.72097 | 113.74231 | 1367 ft | 175 kts | 158° |
| 2026-04-22 07:39 | 22.71049 | 113.74807 | 1158 ft | 164 kts | 158° |
| 2026-04-22 07:39 | 22.70057 | 113.75353 | 947 ft | 155 kts | 158° |
| 2026-04-22 07:40 | 22.69110 | 113.75872 | 736 ft | 152 kts | 159° |
| 2026-04-22 07:40 | 22.68172 | 113.76388 | 531 ft | 153 kts | 159° |
| 2026-04-22 07:40 | 22.66910 | 113.76856 | 1313 ft | 199 kts | 150° |
| 2026-04-22 07:40 | 22.65720 | 113.77816 | 1485 ft | 227 kts | 154° |
| 2026-04-22 07:41 | 22.64376 | 113.78652 | 1683 ft | 217 kts | 154° |
| 2026-04-22 07:41 | 22.62891 | 113.78946 | 1061 ft | 226 kts | 188° |
| 2026-04-22 07:41 | 22.61414 | 113.78331 | 634 ft | 226 kts | 209° |
| 2026-04-22 07:41 | 22.60468 | 113.77896 | 816 ft | 211 kts | 204° |
| 2026-04-22 07:42 | 22.59195 | 113.77325 | 1164 ft | 190 kts | 210° |
| 2026-04-22 07:42 | 22.57699 | 113.76329 | 1727 ft | 196 kts | 208° |
| 2026-04-22 07:42 | 22.56856 | 113.75976 | 2042 ft | 198 kts | 198° |
| 2026-04-22 07:42 | 22.55490 | 113.75714 | 2526 ft | 200 kts | 186° |
| 2026-04-22 07:43 | 22.54105 | 113.75630 | 3003 ft | 200 kts | 182° |
| 2026-04-22 07:43 | 22.52707 | 113.75579 | 3480 ft | 201 kts | 182° |
| 2026-04-22 07:43 | 22.51300 | 113.75530 | 3838 ft | 203 kts | 183° |
| 2026-04-22 07:43 | 22.49996 | 113.75484 | 3917 ft | 204 kts | 183° |
| 2026-04-22 07:44 | 22.48570 | 113.75173 | 3874 ft | 203 kts | 205° |
| 2026-04-22 07:44 | 22.47636 | 113.74060 | 3841 ft | 206 kts | 244° |
| 2026-04-22 07:44 | 22.47454 | 113.72507 | 3924 ft | 212 kts | 268° |
| 2026-04-22 07:44 | 22.47707 | 113.70924 | 3933 ft | 216 kts | 281° |
| 2026-04-22 07:45 | 22.48178 | 113.69383 | 3923 ft | 217 kts | 286° |
| 2026-04-22 07:45 | 22.48735 | 113.67866 | 3913 ft | 217 kts | 288° |
| 2026-04-22 07:45 | 22.49310 | 113.66354 | 3907 ft | 217 kts | 288° |
| 2026-04-22 07:45 | 22.49881 | 113.64838 | 3902 ft | 217 kts | 288° |
| 2026-04-22 07:46 | 22.50460 | 113.63289 | 3920 ft | 232 kts | 288° |
| 2026-04-22 07:46 | 22.51080 | 113.61625 | 3931 ft | 243 kts | 288° |
| 2026-04-22 07:46 | 22.51718 | 113.59913 | 3924 ft | 248 kts | 288° |
| 2026-04-22 07:46 | 22.52377 | 113.58201 | 3910 ft | 252 kts | 293° |
| 2026-04-22 07:47 | 22.53586 | 113.56828 | 3866 ft | 259 kts | 328° |
| 2026-04-22 07:47 | 22.55322 | 113.56301 | 3915 ft | 263 kts | 353° |
| 2026-04-22 07:47 | 22.57152 | 113.56280 | 3924 ft | 264 kts | 1° |
| 2026-04-22 07:47 | 22.58977 | 113.56402 | 3913 ft | 264 kts | 3° |
| 2026-04-22 07:48 | 22.60821 | 113.56521 | 3901 ft | 264 kts | 2° |
| 2026-04-22 07:48 | 22.62655 | 113.56613 | 3896 ft | 264 kts | 1° |
| 2026-04-22 07:48 | 22.64495 | 113.56687 | 3894 ft | 264 kts | 1° |
| 2026-04-22 07:48 | 22.66334 | 113.56756 | 3895 ft | 264 kts | 1° |
| 2026-04-22 07:49 | 22.68182 | 113.56823 | 3896 ft | 267 kts | 1° |
| 2026-04-22 07:49 | 22.69998 | 113.56888 | 3893 ft | 266 kts | 1° |
| 2026-04-22 07:49 | 22.71879 | 113.56951 | 3893 ft | 263 kts | 1° |
| 2026-04-22 07:49 | 22.73708 | 113.57014 | 3888 ft | 263 kts | 1° |
| 2026-04-22 07:50 | 22.75539 | 113.57070 | 3887 ft | 266 kts | 1° |
| 2026-04-22 07:50 | 22.77390 | 113.57127 | 3885 ft | 265 kts | 0° |
| 2026-04-22 07:50 | 22.79232 | 113.57181 | 3857 ft | 263 kts | 1° |
| 2026-04-22 07:50 | 22.81021 | 113.57233 | 3604 ft | 259 kts | 1° |
| 2026-04-22 07:51 | 22.82779 | 113.57566 | 3158 ft | 257 kts | 24° |
| 2026-04-22 07:51 | 22.84109 | 113.58786 | 2700 ft | 251 kts | 57° |
| 2026-04-22 07:51 | 22.84867 | 113.60462 | 2425 ft | 245 kts | 70° |
| 2026-04-22 07:51 | 22.85532 | 113.62168 | 2347 ft | 248 kts | 68° |
| 2026-04-22 07:52 | 22.86192 | 113.63903 | 2277 ft | 251 kts | 78° |
| 2026-04-22 07:52 | 22.86077 | 113.65735 | 2241 ft | 243 kts | 115° |
| 2026-04-22 07:52 | 22.85015 | 113.67098 | 2280 ft | 238 kts | 146° |
| 2026-04-22 07:52 | 22.83589 | 113.67999 | 2297 ft | 236 kts | 154° |
| 2026-04-22 07:53 | 22.82139 | 113.68760 | 2297 ft | 225 kts | 156° |
| 2026-04-22 07:53 | 22.80770 | 113.69481 | 2323 ft | 214 kts | 156° |
| 2026-04-22 07:53 | 22.79457 | 113.70190 | 2302 ft | 208 kts | 155° |
| 2026-04-22 07:53 | 22.78170 | 113.70894 | 2290 ft | 206 kts | 155° |
| 2026-04-22 07:54 | 22.76899 | 113.71592 | 2282 ft | 204 kts | 155° |
| 2026-04-22 07:54 | 22.75610 | 113.72300 | 2086 ft | 209 kts | 155° |
| 2026-04-22 07:54 | 22.74343 | 113.72996 | 1877 ft | 194 kts | 155° |
| 2026-04-22 07:54 | 22.73190 | 113.73631 | 1607 ft | 179 kts | 156° |
| 2026-04-22 07:55 | 22.72121 | 113.74218 | 1359 ft | 166 kts | 158° |
| 2026-04-22 07:55 | 22.71117 | 113.74770 | 1146 ft | 159 kts | 158° |
| 2026-04-22 07:55 | 22.70143 | 113.75305 | 944 ft | 156 kts | 158° |
| 2026-04-22 07:55 | 22.69197 | 113.75825 | 742 ft | 153 kts | 159° |
| 2026-04-22 07:56 | 22.68247 | 113.76347 | 542 ft | 153 kts | 159° |
| 2026-04-22 07:56 | 22.67301 | 113.76867 | 342 ft | 153 kts | 159° |
| 2026-04-22 07:56 | 22.66350 | 113.77393 | 139 ft | 154 kts | 159° |
| 2026-04-22 07:56 | 22.65399 | 113.77915 | 27 ft | 147 kts | 159° |
| 2026-04-22 07:57 | 22.64533 | 113.78368 | 22 ft | 106 kts | 147° |
| 2026-04-22 07:57 | 22.64217 | 113.78573 | 22 ft | 25 kts | 133° |
| 2026-04-22 07:57 | 22.64142 | 113.78678 | 22 ft | 14 kts | 127° |
| 2026-04-22 07:57 | 22.64103 | 113.78750 | 22 ft | 10 kts | 115° |
| 2026-04-22 07:58 | 22.64122 | 113.78806 | 22 ft | 9 kts | 345° |
| 2026-04-22 07:58 | 22.64188 | 113.78792 | 22 ft | 11 kts | 335° |
| 2026-04-22 07:58 | 22.64256 | 113.78756 | 22 ft | 13 kts | 334° |
| 2026-04-22 07:58 | 22.64353 | 113.78703 | 22 ft | 18 kts | 334° |
| 2026-04-22 07:59 | 22.64475 | 113.78638 | 22 ft | 19 kts | 330° |
| 2026-04-22 07:59 | 22.64569 | 113.78587 | 22 ft | 14 kts | 334° |
| 2026-04-22 07:59 | 22.64653 | 113.78542 | 22 ft | 13 kts | 334° |
| 2026-04-22 07:59 | 22.64731 | 113.78498 | 22 ft | 13 kts | 330° |
| 2026-04-22 08:00 | 22.64806 | 113.78453 | 22 ft | 12 kts | 334° |
| 2026-04-22 08:00 | 22.64880 | 113.78414 | 22 ft | 12 kts | 334° |
| 2026-04-22 08:00 | 22.64952 | 113.78378 | 22 ft | 11 kts | 335° |
| 2026-04-22 08:00 | 22.65021 | 113.78336 | 22 ft | 14 kts | 326° |
| 2026-04-22 08:01 | 22.65135 | 113.78275 | 22 ft | 20 kts | 334° |
| 2026-04-22 08:01 | 22.65267 | 113.78204 | 22 ft | 19 kts | 334° |
| 2026-04-22 08:01 | 22.65357 | 113.78154 | 22 ft | 12 kts | 333° |
| 2026-04-22 08:01 | 22.65367 | 113.78149 | 22 ft | 0 kts | 333° |
| 2026-04-22 08:03 | 22.65368 | 113.78149 | 22 ft | 0 kts | 333° |
| 2026-04-22 08:05 | 22.65368 | 113.78148 | 22 ft | 0 kts | 333° |
| 2026-04-22 08:09 | 22.65370 | 113.78147 | 22 ft | 3 kts | 333° |
| 2026-04-22 08:10 | 22.65435 | 113.78111 | 22 ft | 19 kts | 333° |
| 2026-04-22 08:10 | 22.65596 | 113.78020 | 22 ft | 31 kts | 335° |
| 2026-04-22 08:10 | 22.65772 | 113.77926 | 22 ft | 28 kts | 335° |
| 2026-04-22 08:10 | 22.65914 | 113.77846 | 22 ft | 25 kts | 332° |
| 2026-04-22 08:11 | 22.66068 | 113.77819 | 22 ft | 19 kts | 14° |
| 2026-04-22 08:11 | 22.66187 | 113.77891 | 22 ft | 17 kts | 65° |
| 2026-04-22 08:11 | 22.66240 | 113.78019 | 22 ft | 19 kts | 68° |
| 2026-04-22 08:11 | 22.66302 | 113.78143 | 22 ft | 19 kts | 53° |
| 2026-04-22 08:12 | 22.66359 | 113.78252 | 22 ft | 16 kts | 62° |
| 2026-04-22 08:12 | 22.66326 | 113.78329 | 22 ft | 11 kts | 154° |
| 2026-04-22 08:12 | 22.66260 | 113.78364 | 22 ft | 10 kts | 153° |
| 2026-04-22 08:12 | 22.66201 | 113.78396 | 22 ft | 9 kts | 153° |
| 2026-04-22 08:13 | 22.66145 | 113.78426 | 22 ft | 9 kts | 154° |
| 2026-04-22 08:13 | 22.66090 | 113.78453 | 22 ft | 8 kts | 155° |
| 2026-04-22 08:13 | 22.66038 | 113.78479 | 22 ft | 8 kts | 156° |
| 2026-04-22 08:13 | 22.65988 | 113.78503 | 22 ft | 8 kts | 156° |
| 2026-04-22 08:14 | 22.65941 | 113.78536 | 22 ft | 10 kts | 146° |
| 2026-04-22 08:14 | 22.65860 | 113.78582 | 22 ft | 16 kts | 153° |
| 2026-04-22 08:14 | 22.65744 | 113.78650 | 22 ft | 21 kts | 150° |
| 2026-04-22 08:14 | 22.65617 | 113.78718 | 22 ft | 20 kts | 156° |
| 2026-04-22 08:15 | 22.65495 | 113.78780 | 21 ft | 20 kts | 152° |
| 2026-04-22 08:15 | 22.65355 | 113.78853 | 21 ft | 24 kts | 155° |
| 2026-04-22 08:15 | 22.65234 | 113.78917 | 21 ft | 19 kts | 154° |
| 2026-04-22 08:15 | 22.65118 | 113.78976 | 21 ft | 18 kts | 155° |
| 2026-04-22 08:16 | 22.65009 | 113.79031 | 21 ft | 17 kts | 153° |
| 2026-04-22 08:16 | 22.64908 | 113.79088 | 21 ft | 16 kts | 153° |
| 2026-04-22 08:16 | 22.64805 | 113.79143 | 21 ft | 17 kts | 154° |
| 2026-04-22 08:16 | 22.64683 | 113.79211 | 21 ft | 21 kts | 149° |
| 2026-04-22 08:17 | 22.64549 | 113.79285 | 21 ft | 23 kts | 153° |
| 2026-04-22 08:17 | 22.64397 | 113.79368 | 21 ft | 26 kts | 151° |
| 2026-04-22 08:17 | 22.64232 | 113.79459 | 21 ft | 27 kts | 154° |
| 2026-04-22 08:17 | 22.64076 | 113.79561 | 21 ft | 25 kts | 150° |
| 2026-04-22 08:18 | 22.63940 | 113.79635 | 21 ft | 21 kts | 153° |
| 2026-04-22 08:18 | 22.63810 | 113.79706 | 21 ft | 20 kts | 155° |
| 2026-04-22 08:18 | 22.63680 | 113.79774 | 21 ft | 20 kts | 152° |
| 2026-04-22 08:18 | 22.63540 | 113.79850 | 21 ft | 24 kts | 155° |
| 2026-04-22 08:19 | 22.63408 | 113.79926 | 21 ft | 18 kts | 151° |
| 2026-04-22 08:19 | 22.63295 | 113.79989 | 21 ft | 17 kts | 154° |
| 2026-04-22 08:19 | 22.63212 | 113.80040 | 21 ft | 6 kts | 107° |
| 2026-04-22 08:19 | 22.63249 | 113.80085 | 21 ft | 13 kts | 62° |
| 2026-04-22 08:20 | 22.63274 | 113.80194 | 21 ft | 13 kts | 141° |
| 2026-04-22 08:20 | 22.63233 | 113.80213 | 21 ft | 0 kts | 155° |